CPX786 Details

Departure: Kingsford Smith International Airport (YSSY)
Arrival: Chek Lap Kok International (VHHH)
Route: RIC H202 AGETA R340 AMN A461 ZAM A583 SABNO V541 DOVAR V541 BETTY


Current Weather Information
YSSY 212200Z 33007KT 9999 FEW030 17/11 Q1027 NOSIG
VHHH 212200Z 09004KT 060V130 9999 FEW017 24/22 Q1010 NOSIG